Time;durP1;ratioP1;P1;durP2;ratioP2;P2;SDS_P1;SDS_P2;PMS_P1;PMS_P2;Temp;Humidity;BMP_temperature;BMP_pressure;BME280_temperature;BME280_humidity;BME280_pressure;Samples;Min_cycle;Max_cycle;Signal;HPM_P1;HPM_P2
2023/05/08 00:00:28;;;;;;;11.93;9.93;;;8.90;99.90;;;;;;5011050;28;20041;-48
2023/05/08 00:03:15;;;;;;;12.10;10.70;;;8.90;99.90;;;;;;5011647;28;20120;-48
2023/05/08 00:06:05;;;;;;;12.20;10.18;;;8.90;99.90;;;;;;5013217;28;20034;-52
2023/05/08 00:08:51;;;;;;;11.65;10.55;;;9.00;99.90;;;;;;5015316;28;20026;-47
2023/05/08 00:11:37;;;;;;;11.60;10.50;;;9.00;99.90;;;;;;5014061;28;20042;-48
2023/05/08 00:14:23;;;;;;;11.23;10.13;;;8.90;99.90;;;;;;5016140;28;20557;-48
2023/05/08 00:17:08;;;;;;;14.05;11.07;;;8.90;99.90;;;;;;5013778;28;20069;-48
2023/05/08 00:19:54;;;;;;;10.77;9.73;;;8.80;99.90;;;;;;5013993;28;20064;-49
2023/05/08 00:22:40;;;;;;;11.75;10.55;;;8.80;99.90;;;;;;5013984;28;20487;-47
2023/05/08 00:25:26;;;;;;;12.05;10.50;;;8.80;99.90;;;;;;5015180;28;20033;-50
2023/05/08 00:28:12;;;;;;;12.43;10.52;;;8.80;99.90;;;;;;5013422;28;20065;-49
2023/05/08 00:31:00;;;;;;;12.45;10.75;;;8.90;99.90;;;;;;5013415;28;20037;-49
2023/05/08 00:33:46;;;;;;;11.00;9.90;;;8.90;99.90;;;;;;5014620;28;20078;-48
2023/05/08 00:36:32;;;;;;;11.38;10.20;;;8.90;99.90;;;;;;5013515;28;20058;-48
2023/05/08 00:39:18;;;;;;;11.93;10.05;;;8.90;99.90;;;;;;5014627;28;20034;-50
2023/05/08 00:42:04;;;;;;;12.05;10.85;;;8.90;99.90;;;;;;5013612;28;20034;-48
2023/05/08 00:44:50;;;;;;;11.45;10.32;;;8.80;99.90;;;;;;5013810;28;20037;-49
2023/05/08 00:47:36;;;;;;;12.02;9.90;;;8.90;99.90;;;;;;5013288;28;20026;-47
2023/05/08 00:50:22;;;;;;;10.50;9.45;;;8.90;99.90;;;;;;5013345;28;20518;-49
2023/05/08 00:53:11;;;;;;;11.80;9.95;;;8.90;99.90;;;;;;5013284;28;20044;-50
2023/05/08 00:55:57;;;;;;;11.43;10.40;;;8.80;99.90;;;;;;5014583;28;20525;-49
2023/05/08 00:58:44;;;;;;;10.65;9.55;;;8.80;99.90;;;;;;5014647;28;20075;-50
2023/05/08 01:01:31;;;;;;;12.45;11.13;;;8.80;99.90;;;;;;5014118;28;20038;-48
2023/05/08 01:04:23;;;;;;;10.73;9.60;;;8.80;99.90;;;;;;5014364;28;20509;-46
2023/05/08 01:07:10;;;;;;;11.05;9.95;;;8.80;99.90;;;;;;5014588;28;20155;-52
2023/05/08 01:09:56;;;;;;;11.43;9.80;;;8.80;99.90;;;;;;5014899;28;20026;-48
2023/05/08 01:13:19;;;;;;;11.30;10.20;;;8.80;99.90;;;;;;5013071;28;20405;-49
2023/05/08 01:16:14;;;;;;;13.55;10.77;;;8.70;99.90;;;;;;5014617;28;20053;-48
2023/05/08 01:19:15;;;;;;;11.90;10.70;;;8.70;99.90;;;;;;5014068;28;20034;-48
2023/05/08 01:22:26;;;;;;;11.88;10.40;;;8.70;99.90;;;;;;5013902;28;20123;-50
2023/05/08 01:25:39;;;;;;;11.68;10.07;;;8.60;99.90;;;;;;5013659;28;20026;-47
2023/05/08 01:28:54;;;;;;;13.07;10.00;;;8.60;99.90;;;;;;5014740;28;20030;-47
2023/05/08 01:32:13;;;;;;;11.35;10.20;;;8.50;99.90;;;;;;5011963;28;20042;-52
2023/05/08 01:35:16;;;;;;;11.48;9.77;;;8.60;99.90;;;;;;5017142;28;20022;-47
2023/05/08 01:38:06;;;;;;;10.95;9.85;;;8.60;99.90;;;;;;5014567;28;20041;-48
2023/05/08 01:40:57;;;;;;;14.63;10.85;;;8.60;99.90;;;;;;5013999;28;20557;-48
2023/05/08 01:44:11;;;;;;;10.98;9.88;;;8.50;99.90;;;;;;5014461;28;20498;-47
2023/05/08 01:46:58;;;;;;;11.50;10.32;;;8.40;99.90;;;;;;5013682;28;20109;-48
2023/05/08 01:49:47;;;;;;;11.15;9.95;;;8.40;99.90;;;;;;5013789;28;20104;-53
2023/05/08 01:53:06;;;;;;;12.48;10.43;;;8.30;99.90;;;;;;5012815;28;20040;-47
2023/05/08 01:55:56;;;;;;;12.90;11.07;;;8.30;99.90;;;;;;5013211;28;20095;-48
2023/05/08 01:58:44;;;;;;;11.20;10.10;;;8.30;99.90;;;;;;5013148;28;20042;-49
2023/05/08 02:01:32;;;;;;;11.63;10.43;;;8.30;99.90;;;;;;5013642;28;20045;-48
2023/05/08 02:04:18;;;;;;;12.60;10.18;;;8.20;99.90;;;;;;5013843;28;20026;-49
2023/05/08 02:07:05;;;;;;;11.75;10.55;;;8.20;99.90;;;;;;5018798;28;20081;-47
2023/05/08 02:09:53;;;;;;;11.20;10.10;;;8.20;99.90;;;;;;5019866;28;20141;-47
2023/05/08 02:12:41;;;;;;;11.20;10.00;;;8.20;99.90;;;;;;5014411;28;20026;-48
2023/05/08 02:15:29;;;;;;;13.23;10.15;;;8.20;99.90;;;;;;5014675;28;20065;-46
2023/05/08 02:18:19;;;;;;;11.52;10.18;;;8.10;99.90;;;;;;5015085;28;20069;-48
2023/05/08 02:21:08;;;;;;;10.75;9.65;;;8.20;99.90;;;;;;5016283;28;20034;-50
2023/05/08 02:23:56;;;;;;;12.15;10.73;;;8.20;99.90;;;;;;5032175;28;20042;-48
2023/05/08 02:26:44;;;;;;;11.82;10.63;;;8.10;99.90;;;;;;5017188;28;20030;-47
2023/05/08 02:29:31;;;;;;;13.25;10.98;;;8.00;99.90;;;;;;5013771;28;20037;-46
2023/05/08 02:32:19;;;;;;;11.70;10.52;;;8.00;99.90;;;;;;5013867;28;20109;-46
2023/05/08 02:35:08;;;;;;;12.38;10.90;;;8.00;99.90;;;;;;5012776;28;20145;-47
2023/05/08 02:37:56;;;;;;;12.75;11.35;;;8.00;99.90;;;;;;5012055;28;20498;-47
2023/05/08 02:40:47;;;;;;;12.18;10.48;;;8.00;99.90;;;;;;5021200;28;20022;-48
2023/05/08 02:43:33;;;;;;;11.65;10.43;;;8.00;99.90;;;;;;5016403;28;20030;-49
2023/05/08 02:46:57;;;;;;;14.02;11.25;;;8.00;99.90;;;;;;5011376;28;20030;-50
2023/05/08 02:49:54;;;;;;;14.00;11.82;;;8.00;99.90;;;;;;5012973;28;20025;-48
2023/05/08 02:52:53;;;;;;;12.23;10.88;;;7.90;99.90;;;;;;5012860;28;20553;-49
2023/05/08 02:55:46;;;;;;;12.60;11.10;;;7.90;99.90;;;;;;5012375;28;20021;-49
2023/05/08 02:59:10;;;;;;;12.63;11.38;;;7.90;99.90;;;;;;5012363;28;20072;-46
2023/05/08 03:02:05;;;;;;;14.23;11.98;;;7.80;99.90;;;;;;4951412;29;20063;-49
2023/05/08 03:04:55;;;;;;;;;;;7.90;99.90;;;;;;5012252;28;20057;-46
2023/05/08 03:07:42;;;;;;;12.13;10.70;;;7.90;99.90;;;;;;5012492;28;19909;-47
2023/05/08 03:10:32;;;;;;;12.45;11.15;;;7.80;99.90;;;;;;5012788;28;20146;-48
2023/05/08 03:13:20;;;;;;;13.77;11.35;;;7.80;99.90;;;;;;5012726;28;20292;-48
2023/05/08 03:16:11;;;;;;;12.35;11.05;;;7.70;99.90;;;;;;5013172;28;20030;-48
2023/05/08 03:19:02;;;;;;;15.13;12.52;;;7.70;99.90;;;;;;5011497;28;20041;-47
2023/05/08 03:21:50;;;;;;;17.17;12.05;;;7.70;99.90;;;;;;5012388;28;20030;-50
2023/05/08 03:24:38;;;;;;;12.90;11.60;;;7.60;99.90;;;;;;5012225;28;20026;-48
2023/05/08 03:27:27;;;;;;;13.27;11.10;;;7.60;99.90;;;;;;5011901;28;20045;-48
2023/05/08 03:30:15;;;;;;;13.93;11.93;;;7.60;99.90;;;;;;5012069;28;20499;-48
2023/05/08 03:33:03;;;;;;;15.05;11.80;;;7.60;99.90;;;;;;5011341;28;20494;-51
2023/05/08 03:35:51;;;;;;;13.13;11.73;;;7.60;99.90;;;;;;5012181;28;20026;-51
2023/05/08 03:38:37;;;;;;;14.82;12.48;;;7.60;99.90;;;;;;5012411;28;20557;-48
2023/05/08 03:41:24;;;;;;;16.73;12.68;;;7.50;99.90;;;;;;5011412;28;20030;-49
2023/05/08 03:44:12;;;;;;;14.35;12.18;;;7.50;99.90;;;;;;5011695;28;20092;-49
2023/05/08 03:46:59;;;;;;;15.20;11.77;;;7.40;99.90;;;;;;5014620;28;20037;-47
2023/05/08 03:49:46;;;;;;;12.93;11.55;;;7.40;99.90;;;;;;5013897;28;20029;-48
2023/05/08 03:52:32;;;;;;;14.95;12.40;;;7.40;99.90;;;;;;5013095;28;20026;-48
2023/05/08 03:55:18;;;;;;;16.25;12.20;;;7.40;99.90;;;;;;5011178;28;20029;-48
2023/05/08 03:58:18;;;;;;;13.43;11.57;;;7.40;99.90;;;;;;5010333;28;20033;-52
2023/05/08 04:01:24;;;;;;;13.48;11.85;;;7.50;99.90;;;;;;5010261;28;20109;-48
2023/05/08 04:04:44;;;;;;;13.38;11.73;;;7.50;99.90;;;;;;5011967;28;20033;-52
2023/05/08 04:07:48;;;;;;;14.80;12.15;;;7.60;99.90;;;;;;4987710;28;20030;-49
2023/05/08 04:10:45;;;;;;;13.88;12.30;;;7.60;99.90;;;;;;5011701;28;20053;-52
2023/05/08 04:13:34;;;;;;;15.82;12.60;;;7.70;99.90;;;;;;5011734;28;20486;-49
2023/05/08 04:16:26;;;;;;;14.55;11.98;;;7.70;99.90;;;;;;5011532;28;20022;-50
2023/05/08 04:19:21;;;;;;;16.05;12.63;;;7.80;99.90;;;;;;5011708;28;20030;-47
2023/05/08 04:22:10;;;;;;;14.07;12.45;;;7.80;99.90;;;;;;5011680;28;20033;-49
2023/05/08 04:25:00;;;;;;;13.23;11.93;;;7.80;99.90;;;;;;5017127;28;20085;-48
2023/05/08 04:27:47;;;;;;;14.15;12.13;;;7.80;99.90;;;;;;5015454;28;20072;-49
2023/05/08 04:30:33;;;;;;;13.90;11.88;;;7.80;99.90;;;;;;5011972;28;20038;-48
2023/05/08 04:33:19;;;;;;;15.18;12.63;;;7.80;99.90;;;;;;5011560;28;20069;-47
2023/05/08 04:36:11;;;;;;;13.85;12.45;;;7.80;99.90;;;;;;5011592;28;20018;-48
2023/05/08 04:38:57;;;;;;;14.25;12.75;;;7.90;99.90;;;;;;5011926;28;20553;-47
2023/05/08 04:41:42;;;;;;;14.88;12.93;;;7.90;99.90;;;;;;5009906;28;20483;-49
2023/05/08 04:44:29;;;;;;;26.23;19.50;;;8.00;99.90;;;;;;5010231;28;20557;-48
2023/05/08 04:47:15;;;;;;;16.98;14.18;;;8.00;99.90;;;;;;5010000;28;20060;-48
2023/05/08 04:50:01;;;;;;;14.88;12.80;;;8.10;99.90;;;;;;5010463;28;20033;-49
2023/05/08 04:52:47;;;;;;;14.98;12.63;;;8.10;99.90;;;;;;5012404;28;20026;-49
2023/05/08 04:55:33;;;;;;;14.18;12.68;;;8.10;99.90;;;;;;5013482;28;20030;-52
2023/05/08 04:58:19;;;;;;;13.85;12.45;;;8.20;99.90;;;;;;5013278;28;20038;-49
2023/05/08 05:01:05;;;;;;;14.27;12.55;;;8.20;99.90;;;;;;5013784;28;20032;-47
2023/05/08 05:03:51;;;;;;;13.55;12.15;;;8.20;99.90;;;;;;5013764;28;20042;-49
2023/05/08 05:06:37;;;;;;;14.32;12.63;;;8.20;99.90;;;;;;5014104;28;20030;-49
2023/05/08 05:09:24;;;;;;;13.05;11.80;;;8.30;99.90;;;;;;5014010;28;20084;-50
2023/05/08 05:12:10;;;;;;;14.60;12.77;;;8.40;99.90;;;;;;5015906;28;20030;-49
2023/05/08 05:14:56;;;;;;;13.05;11.63;;;8.40;99.90;;;;;;5013309;28;20117;-49
2023/05/08 05:17:42;;;;;;;16.63;13.32;;;8.50;99.90;;;;;;5013030;28;20411;-50
2023/05/08 05:20:27;;;;;;;14.50;12.77;;;8.50;99.90;;;;;;5013122;28;20507;-52
2023/05/08 05:23:13;;;;;;;14.15;12.70;;;8.60;99.90;;;;;;5013227;28;20026;-49
2023/05/08 05:25:59;;;;;;;15.00;13.32;;;8.60;99.90;;;;;;5012688;28;20060;-53
2023/05/08 05:28:45;;;;;;;14.65;13.10;;;8.60;99.90;;;;;;5012702;28;20033;-50
2023/05/08 05:31:31;;;;;;;14.77;13.05;;;8.70;99.90;;;;;;5014579;28;20030;-49
2023/05/08 05:34:17;;;;;;;15.27;12.30;;;8.90;99.90;;;;;;5012799;28;20495;-49
2023/05/08 05:37:03;;;;;;;16.30;13.85;;;9.00;99.90;;;;;;5012552;28;20029;-53
2023/05/08 05:39:50;;;;;;;13.88;12.38;;;9.00;99.90;;;;;;5014189;28;20494;-50
2023/05/08 05:42:36;;;;;;;14.48;13.07;;;9.00;99.90;;;;;;5014271;28;20076;-49
2023/05/08 05:45:22;;;;;;;52.30;33.13;;;9.00;99.90;;;;;;5013660;28;20112;-48
2023/05/08 05:48:08;;;;;;;15.15;13.52;;;9.10;99.90;;;;;;5012871;28;20052;-52
2023/05/08 05:50:54;;;;;;;22.00;13.52;;;9.20;99.90;;;;;;5014116;28;20391;-49
2023/05/08 05:53:40;;;;;;;15.20;13.65;;;9.30;99.90;;;;;;5012205;28;20067;-49
2023/05/08 05:56:26;;;;;;;15.27;12.90;;;9.20;99.90;;;;;;5012335;28;20026;-48
2023/05/08 05:59:12;;;;;;;16.80;13.90;;;9.30;99.90;;;;;;5013939;28;20041;-49
2023/05/08 06:02:01;;;;;;;15.68;13.45;;;9.40;99.90;;;;;;5014780;28;20037;-52
2023/05/08 06:04:48;;;;;;;15.05;13.55;;;9.50;99.90;;;;;;5017006;28;20120;-48
2023/05/08 06:07:34;;;;;;;14.73;13.13;;;9.50;99.90;;;;;;5014500;28;20065;-48
2023/05/08 06:10:20;;;;;;;29.70;20.17;;;9.60;99.90;;;;;;5012886;28;20022;-48
2023/05/08 06:13:08;;;;;;;20.15;15.93;;;9.70;99.90;;;;;;5014147;28;20026;-49
2023/05/08 06:15:57;;;;;;;22.42;17.33;;;9.70;99.90;;;;;;5012826;28;20025;-49
2023/05/08 06:18:43;;;;;;;14.82;13.32;;;9.80;99.90;;;;;;5012546;28;20049;-49
2023/05/08 06:21:29;;;;;;;17.60;13.52;;;9.90;99.90;;;;;;5012516;28;20018;-51
2023/05/08 06:24:15;;;;;;;15.68;13.15;;;10.00;99.90;;;;;;5012422;28;20050;-48
2023/05/08 06:27:01;;;;;;;14.35;12.90;;;10.20;99.90;;;;;;5012112;28;20453;-48
2023/05/08 06:29:57;;;;;;;15.40;12.98;;;10.30;99.90;;;;;;5012672;28;20041;-50
2023/05/08 06:32:43;;;;;;;13.88;12.48;;;10.30;99.90;;;;;;5013026;28;20204;-47
2023/05/08 06:35:29;;;;;;;14.70;13.18;;;10.40;99.90;;;;;;5011958;28;20069;-49
2023/05/08 06:38:15;;;;;;;18.08;13.25;;;10.40;99.90;;;;;;5011227;28;20026;-50
2023/05/08 06:41:01;;;;;;;14.75;12.95;;;10.40;99.90;;;;;;5019611;28;20069;-49
2023/05/08 06:43:47;;;;;;;15.27;13.00;;;10.50;99.90;;;;;;5019732;28;20032;-49
2023/05/08 06:46:33;;;;;;;14.43;12.98;;;10.50;99.90;;;;;;5012394;28;20045;-49
2023/05/08 06:49:19;;;;;;;15.80;14.23;;;10.40;99.90;;;;;;5011839;28;20390;-52
2023/05/08 06:52:05;;;;;;;14.63;13.23;;;10.50;99.90;;;;;;5011788;28;20046;-51
2023/05/08 06:54:51;;;;;;;16.02;13.35;;;10.60;99.90;;;;;;5011553;28;20527;-51
2023/05/08 06:57:37;;;;;;;14.73;13.27;;;10.80;99.90;;;;;;5010882;28;20026;-47
2023/05/08 07:00:23;;;;;;;15.98;14.38;;;10.90;99.90;;;;;;5011145;28;20034;-49
2023/05/08 07:03:09;;;;;;;16.23;13.98;;;10.90;99.90;;;;;;5013528;28;22255;-47
2023/05/08 07:05:55;;;;;;;16.27;14.35;;;11.00;99.90;;;;;;5010622;28;20037;-46
2023/05/08 07:08:41;;;;;;;15.50;13.80;;;11.20;99.90;;;;;;5012466;28;20465;-50
2023/05/08 07:11:27;;;;;;;16.48;13.48;;;11.20;99.90;;;;;;5011779;28;20045;-50
2023/05/08 07:14:13;;;;;;;16.48;14.02;;;11.40;99.90;;;;;;5012882;28;20060;-48
2023/05/08 07:17:05;;;;;;;14.90;13.38;;;11.50;99.90;;;;;;5011371;28;20061;-50
2023/05/08 07:19:51;;;;;;;14.75;13.10;;;11.60;99.90;;;;;;5012013;28;20113;-49
2023/05/08 07:22:37;;;;;;;15.43;13.75;;;11.70;99.90;;;;;;5012345;28;20037;-47
2023/05/08 07:25:29;;;;;;;14.98;12.50;;;11.70;99.90;;;;;;5012197;28;20049;-48
2023/05/08 07:28:15;;;;;;;16.77;12.85;;;11.60;99.90;;;;;;5011743;28;20044;-51
2023/05/08 07:31:05;;;;;;;15.18;12.20;;;11.80;99.90;;;;;;5011735;28;20037;-50
2023/05/08 07:33:51;;;;;;;15.40;13.73;;;11.90;99.90;;;;;;5011712;28;20057;-51
2023/05/08 07:36:37;;;;;;;17.23;13.55;;;11.90;99.90;;;;;;5010841;28;20455;-53
2023/05/08 07:39:23;;;;;;;14.30;12.88;;;11.90;99.90;;;;;;4991716;28;20390;-53
2023/05/08 07:42:09;;;;;;;15.32;13.27;;;11.90;99.90;;;;;;5000840;28;20037;-49
2023/05/08 07:44:55;;;;;;;14.82;13.32;;;12.00;99.90;;;;;;5000350;28;20561;-50
2023/05/08 07:47:54;;;;;;;14.07;12.68;;;12.10;99.90;;;;;;4993458;28;20491;-51
2023/05/08 07:50:40;;;;;;;13.88;12.57;;;12.30;99.90;;;;;;4994336;28;20117;-50
2023/05/08 07:53:26;;;;;;;14.68;13.18;;;12.40;99.90;;;;;;4992563;28;20490;-55
2023/05/08 07:56:12;;;;;;;15.93;14.30;;;12.30;99.70;;;;;;4991731;28;20562;-52
2023/05/08 07:58:59;;;;;;;15.60;14.00;;;12.20;99.90;;;;;;4992549;28;20046;-53
2023/05/08 08:01:46;;;;;;;14.38;12.98;;;12.30;99.90;;;;;;4996056;28;20030;-51
2023/05/08 08:04:33;;;;;;;13.63;12.32;;;12.20;99.90;;;;;;5004250;28;20026;-52
2023/05/08 08:07:19;;;;;;;14.90;13.35;;;12.50;99.80;;;;;;4993209;28;20038;-50
2023/05/08 08:10:07;;;;;;;13.40;12.00;;;12.70;99.80;;;;;;4993035;28;20114;-50
2023/05/08 08:12:53;;;;;;;14.50;13.02;;;12.90;99.40;;;;;;5008780;28;20076;-51
2023/05/08 08:15:39;;;;;;;14.05;12.55;;;13.00;98.80;;;;;;5012069;28;20030;-51
2023/05/08 08:18:25;;;;;;;13.77;12.38;;;13.00;98.80;;;;;;5013250;28;20030;-54
2023/05/08 08:21:11;;;;;;;13.55;12.07;;;13.00;98.80;;;;;;5020900;28;20030;-52
2023/05/08 08:23:58;;;;;;;13.48;12.18;;;13.10;98.60;;;;;;5012139;28;20517;-52
2023/05/08 08:26:44;;;;;;;14.13;12.63;;;13.20;98.50;;;;;;5012546;28;20045;-52
2023/05/08 08:29:30;;;;;;;15.20;12.93;;;13.30;98.40;;;;;;5001483;28;20446;-52
2023/05/08 08:32:16;;;;;;;15.75;12.70;;;13.10;98.60;;;;;;5015418;28;20037;-50
2023/05/08 08:35:02;;;;;;;14.60;13.10;;;13.30;98.60;;;;;;5014282;28;20030;-50
2023/05/08 08:37:48;;;;;;;14.05;12.13;;;13.40;98.30;;;;;;5013269;28;20479;-52
2023/05/08 08:40:41;;;;;;;14.40;13.00;;;13.40;98.40;;;;;;5013345;28;20052;-50
2023/05/08 08:43:27;;;;;;;13.90;12.07;;;13.50;98.10;;;;;;5015485;28;20568;-55
2023/05/08 08:46:14;;;;;;;14.65;12.23;;;13.80;97.80;;;;;;5015399;28;20030;-51
2023/05/08 08:49:04;;;;;;;12.93;11.68;;;13.90;97.80;;;;;;5013877;28;20022;-50
2023/05/08 08:51:53;;;;;;;13.00;11.68;;;13.90;97.60;;;;;;5014751;28;20376;-51
2023/05/08 08:54:40;;;;;;;15.15;12.75;;;13.80;97.60;;;;;;5012135;28;20084;-48
2023/05/08 08:57:31;;;;;;;14.35;10.77;;;13.70;97.90;;;;;;5019378;28;20096;-49
2023/05/08 09:00:18;;;;;;;13.52;12.13;;;14.00;97.90;;;;;;5020847;28;20034;-49
2023/05/08 09:03:06;;;;;;;13.32;12.02;;;14.00;97.70;;;;;;5016293;28;20045;-51
2023/05/08 09:05:53;;;;;;;11.85;10.75;;;14.00;97.80;;;;;;5014383;28;20568;-50
2023/05/08 09:08:40;;;;;;;12.95;11.60;;;14.10;97.90;;;;;;5014813;28;20105;-50
2023/05/08 09:11:26;;;;;;;13.73;11.65;;;14.20;97.40;;;;;;5013466;28;20030;-53
2023/05/08 09:14:12;;;;;;;12.18;10.98;;;14.10;97.80;;;;;;5013991;28;20092;-54
2023/05/08 09:16:58;;;;;;;12.50;11.20;;;14.30;97.90;;;;;;4999584;28;20030;-52
2023/05/08 09:19:48;;;;;;;13.98;11.93;;;14.60;97.60;;;;;;5014131;28;20033;-49
2023/05/08 09:22:36;;;;;;;12.73;11.43;;;14.60;97.20;;;;;;5015165;28;20022;-52
2023/05/08 09:25:22;;;;;;;13.00;11.80;;;14.50;98.10;;;;;;5013718;28;20364;-51
2023/05/08 09:28:24;;;;;;;13.15;11.77;;;14.70;98.00;;;;;;5013340;28;20030;-53
2023/05/08 09:31:10;;;;;;;12.65;11.30;;;14.80;97.80;;;;;;5014698;28;20026;-50
2023/05/08 09:33:56;;;;;;;13.57;11.88;;;15.10;97.40;;;;;;5013130;28;20037;-47
2023/05/08 09:36:42;;;;;;;14.00;12.60;;;15.10;97.30;;;;;;5013192;28;20089;-47
2023/05/08 09:39:28;;;;;;;16.30;12.18;;;15.10;96.80;;;;;;5012782;28;20019;-51
2023/05/08 09:42:14;;;;;;;14.82;12.50;;;15.10;97.40;;;;;;5014226;28;20033;-49
2023/05/08 09:45:00;;;;;;;14.48;12.77;;;15.20;96.80;;;;;;5011284;28;20026;-50
2023/05/08 09:47:47;;;;;;;20.38;13.32;;;15.00;96.50;;;;;;4994037;28;20038;-49
2023/05/08 09:50:33;;;;;;;14.02;12.60;;;15.20;96.70;;;;;;4994617;28;20410;-49
2023/05/08 09:53:29;;;;;;;13.52;12.23;;;15.20;96.50;;;;;;4993276;28;20026;-50
2023/05/08 09:56:15;;;;;;;13.05;11.65;;;15.20;96.80;;;;;;4994512;28;20030;-51
2023/05/08 09:59:20;;;;;;;13.38;11.88;;;15.40;97.10;;;;;;4994618;28;20027;-49
2023/05/08 10:02:11;;;;;;;13.82;12.02;;;15.70;96.90;;;;;;4996934;28;20025;-49
2023/05/08 10:04:57;;;;;;;13.27;11.32;;;16.00;95.90;;;;;;5002119;28;20101;-50
2023/05/08 10:07:43;;;;;;;12.38;11.13;;;16.10;95.60;;;;;;5019348;28;20041;-51
2023/05/08 10:10:32;;;;;;;13.27;12.07;;;16.20;95.40;;;;;;5009295;28;20549;-50
2023/05/08 10:13:18;;;;;;;14.88;12.27;;;15.90;95.80;;;;;;5013164;28;20034;-49
2023/05/08 10:16:04;;;;;;;12.63;11.43;;;15.90;95.90;;;;;;5014053;28;20026;-50
2023/05/08 10:18:55;;;;;;;12.82;11.52;;;16.00;95.80;;;;;;5014230;28;20065;-53
2023/05/08 10:21:46;;;;;;;12.82;11.48;;;16.20;95.50;;;;;;5013521;28;20398;-51
2023/05/08 10:24:32;;;;;;;12.20;11.00;;;16.20;95.40;;;;;;5013906;28;20400;-51
2023/05/08 10:27:26;;;;;;;14.57;12.27;;;16.40;95.20;;;;;;5013822;28;20084;-50
2023/05/08 10:30:16;;;;;;;12.15;10.90;;;16.40;95.00;;;;;;5008625;28;20026;-53
2023/05/08 10:33:06;;;;;;;11.93;10.65;;;16.50;94.50;;;;;;5009731;28;20034;-49
2023/05/08 10:35:52;;;;;;;12.80;11.43;;;16.40;95.00;;;;;;5014332;28;20022;-50
2023/05/08 10:38:40;;;;;;;11.48;10.20;;;16.40;95.00;;;;;;5013205;28;20026;-54
2023/05/08 10:41:27;;;;;;;12.52;10.10;;;16.70;94.60;;;;;;5013054;28;20029;-52
2023/05/08 10:44:14;;;;;;;9.65;8.85;;;16.90;94.00;;;;;;5013223;28;20034;-51
2023/05/08 10:47:12;;;;;;;11.30;10.10;;;16.90;93.70;;;;;;5012229;28;20030;-51
2023/05/08 10:50:28;;;;;;;12.77;9.38;;;17.00;93.10;;;;;;5013009;28;20510;-50
2023/05/08 10:53:43;;;;;;;10.27;9.25;;;17.10;92.90;;;;;;5012479;28;20038;-54
2023/05/08 10:56:29;;;;;;;10.98;9.25;;;17.00;92.30;;;;;;5012071;28;20022;-52
2023/05/08 10:59:22;;;;;;;12.80;8.77;;;17.00;92.60;;;;;;5013067;28;20037;-48
2023/05/08 11:02:09;;;;;;;9.57;8.68;;;17.20;92.20;;;;;;5013080;28;20030;-51
2023/05/08 11:05:15;;;;;;;9.45;8.40;;;17.40;92.00;;;;;;5014451;28;20445;-51
2023/05/08 11:08:01;;;;;;;9.82;8.02;;;17.60;91.70;;;;;;5012970;28;20033;-52
2023/05/08 11:10:59;;;;;;;11.45;7.45;;;17.50;91.00;;;;;;5011416;28;20080;-51
2023/05/08 11:13:54;;;;;;;8.10;7.35;;;17.60;91.10;;;;;;4994288;28;20089;-49
2023/05/08 11:16:52;;;;;;;10.98;7.63;;;17.70;91.70;;;;;;4992344;28;20072;-54
2023/05/08 11:19:57;;;;;;;9.77;7.90;;;17.70;90.90;;;;;;4992483;28;20510;-51
2023/05/08 11:22:46;;;;;;;9.47;8.47;;;17.50;90.80;;;;;;4991626;28;20030;-50
2023/05/08 11:25:43;;;;;;;8.57;7.47;;;17.50;90.90;;;;;;4991055;28;20094;-48
2023/05/08 11:28:36;;;;;;;8.95;8.02;;;17.50;90.80;;;;;;4996229;28;20034;-53
2023/05/08 11:31:22;;;;;;;8.57;7.13;;;17.50;90.30;;;;;;4998523;28;20030;-49
2023/05/08 11:34:43;;;;;;;8.45;7.63;;;17.60;91.20;;;;;;4994516;28;20382;-50
2023/05/08 11:37:32;;;;;;;7.75;6.95;;;17.70;90.70;;;;;;4992852;28;20027;-49
2023/05/08 11:40:46;;;;;;;7.80;6.88;;;17.90;89.90;;;;;;4991575;28;20522;-50
2023/05/08 11:43:32;;;;;;;8.68;6.47;;;17.80;90.40;;;;;;4993113;28;20034;-50
2023/05/08 11:46:20;;;;;;;8.32;7.18;;;17.90;90.00;;;;;;4991550;28;20030;-50
2023/05/08 11:49:17;;;;;;;9.82;6.85;;;18.00;89.10;;;;;;4991618;28;20026;-50
2023/05/08 11:52:05;;;;;;;10.10;6.60;;;17.90;88.80;;;;;;4991442;28;20091;-48
2023/05/08 11:54:50;;;;;;;6.53;5.80;;;18.00;87.30;;;;;;4993797;28;20027;-48
2023/05/08 11:57:38;;;;;;;8.13;7.28;;;17.90;88.20;;;;;;4993763;28;20515;-48
2023/05/08 12:00:24;;;;;;;6.90;6.20;;;17.70;87.50;;;;;;4995658;28;20060;-52
2023/05/08 12:03:14;;;;;;;6.38;5.40;;;17.60;87.60;;;;;;5009506;28;20026;-48
2023/05/08 12:06:00;;;;;;;6.60;5.55;;;17.70;88.00;;;;;;5002924;28;20034;-51
2023/05/08 12:08:46;;;;;;;7.93;5.82;;;17.80;88.30;;;;;;5004211;28;20406;-49
2023/05/08 12:11:32;;;;;;;8.25;6.32;;;18.00;87.60;;;;;;5015964;28;20030;-50
2023/05/08 12:14:18;;;;;;;7.38;5.45;;;18.20;86.70;;;;;;5015684;28;20045;-52
2023/05/08 12:17:04;;;;;;;6.72;5.45;;;18.30;86.20;;;;;;5015400;28;20477;-51
2023/05/08 12:19:53;;;;;;;5.85;5.25;;;18.30;86.40;;;;;;5015518;28;20688;-49
2023/05/08 12:22:40;;;;;;;6.00;5.40;;;18.50;85.30;;;;;;5014917;28;20064;-49
2023/05/08 12:25:26;;;;;;;9.18;5.78;;;18.60;85.00;;;;;;4995246;28;20027;-52
2023/05/08 12:28:12;;;;;;;6.80;5.00;;;18.70;83.10;;;;;;5006006;28;20033;-50
2023/05/08 12:30:59;;;;;;;6.55;5.03;;;18.70;83.40;;;;;;5014793;28;20054;-46
2023/05/08 12:33:46;;;;;;;4.80;4.32;;;18.70;82.30;;;;;;5008950;28;20505;-50
2023/05/08 12:36:34;;;;;;;11.15;4.95;;;18.90;82.50;;;;;;5006187;28;20081;-49
2023/05/08 12:39:20;;;;;;;9.07;5.80;;;19.10;81.80;;;;;;5006163;28;20030;-50
2023/05/08 12:42:06;;;;;;;5.57;5.00;;;19.10;80.90;;;;;;5004278;28;20504;-47
2023/05/08 12:44:52;;;;;;;13.90;11.32;;;19.20;80.30;;;;;;5006473;28;20053;-48
2023/05/08 12:47:38;;;;;;;11.00;8.35;;;19.30;80.50;;;;;;5007083;28;20526;-48
2023/05/08 12:50:24;;;;;;;7.90;5.70;;;19.60;80.20;;;;;;5008328;28;20034;-49
2023/05/08 12:53:13;;;;;;;7.80;4.68;;;19.70;79.00;;;;;;5004828;28;20030;-50
2023/05/08 12:56:03;;;;;;;6.05;5.00;;;20.10;78.60;;;;;;4998266;28;20022;-52
2023/05/08 12:58:49;;;;;;;7.78;4.85;;;20.30;78.50;;;;;;5004458;28;20537;-49
2023/05/08 13:01:35;;;;;;;6.07;4.20;;;20.40;79.60;;;;;;4995948;28;20360;-49
2023/05/08 13:04:21;;;;;;;4.00;3.60;;;20.30;78.30;;;;;;4996796;28;20109;-50
2023/05/08 13:07:07;;;;;;;5.28;4.10;;;20.10;76.70;;;;;;4995180;28;20126;-49
2023/05/08 13:10:03;;;;;;;4.53;3.97;;;20.20;76.70;;;;;;5008078;28;20068;-48
2023/05/08 13:12:49;;;;;;;5.60;4.28;;;20.40;76.30;;;;;;5012896;28;20029;-48
2023/05/08 13:15:35;;;;;;;4.40;4.00;;;20.60;76.10;;;;;;5013994;28;20490;-47
2023/05/08 13:18:24;;;;;;;6.65;4.25;;;20.60;74.60;;;;;;4997179;28;20026;-48
2023/05/08 13:21:10;;;;;;;5.75;4.43;;;20.70;75.70;;;;;;4994366;28;20031;-48
2023/05/08 13:23:56;;;;;;;7.15;4.18;;;20.60;76.70;;;;;;4993600;28;20026;-47
2023/05/08 13:26:42;;;;;;;3.75;3.30;;;20.50;75.50;;;;;;4994300;28;20026;-49
2023/05/08 13:29:28;;;;;;;4.85;4.20;;;20.50;73.90;;;;;;4994506;28;20082;-49
2023/05/08 13:32:13;;;;;;;4.70;4.00;;;20.70;74.80;;;;;;4993513;28;20034;-49
2023/05/08 13:34:59;;;;;;;4.40;4.00;;;20.90;73.70;;;;;;4994929;28;20050;-47
2023/05/08 13:37:46;;;;;;;4.85;4.35;;;21.00;71.50;;;;;;4995070;28;20073;-48
2023/05/08 13:40:32;;;;;;;6.03;4.40;;;21.10;73.60;;;;;;4995033;28;20514;-48
2023/05/08 13:43:18;;;;;;;4.68;4.10;;;21.10;74.30;;;;;;4994336;28;20045;-48
2023/05/08 13:46:04;;;;;;;4.20;3.78;;;21.20;72.20;;;;;;4994235;28;20447;-48
2023/05/08 13:48:50;;;;;;;5.60;3.90;;;21.30;73.20;;;;;;4994887;28;20118;-48
2023/05/08 13:51:36;;;;;;;7.65;4.00;;;21.40;73.60;;;;;;4993786;28;20467;-47
2023/05/08 13:54:22;;;;;;;4.68;3.97;;;21.50;74.10;;;;;;4996857;28;20046;-48
2023/05/08 13:57:08;;;;;;;4.97;4.00;;;21.50;70.90;;;;;;5003150;28;20092;-48
2023/05/08 13:59:54;;;;;;;4.20;3.22;;;21.40;70.00;;;;;;5007089;28;20061;-50
2023/05/08 14:02:40;;;;;;;4.68;3.33;;;21.20;70.10;;;;;;5006599;28;20380;-49
2023/05/08 14:05:26;;;;;;;4.45;3.78;;;21.30;70.30;;;;;;5000975;28;20543;-48
2023/05/08 14:08:12;;;;;;;4.25;3.20;;;21.30;68.80;;;;;;5012961;28;20030;-51
2023/05/08 14:10:58;;;;;;;4.60;3.10;;;21.10;69.50;;;;;;4997399;28;20026;-54
2023/05/08 14:13:44;;;;;;;12.07;4.10;;;21.10;69.30;;;;;;5018450;28;20046;-50
2023/05/08 14:16:30;;;;;;;4.88;3.60;;;20.90;69.00;;;;;;5013745;28;20025;-48
2023/05/08 14:19:16;;;;;;;8.20;3.40;;;20.60;69.80;;;;;;5013122;28;20026;-48
2023/05/08 14:22:02;;;;;;;3.90;3.50;;;20.70;69.20;;;;;;5011906;28;20026;-52
2023/05/08 14:24:48;;;;;;;9.55;3.63;;;20.80;68.80;;;;;;5002238;28;20092;-51
2023/05/08 14:27:34;;;;;;;9.27;3.75;;;20.90;68.70;;;;;;4993475;28;20081;-51